createdAt,value
2022-09-12T00:03:32.082Z,11.10
2022-09-12T00:07:54.176Z,11.20
2022-09-12T00:12:16.017Z,11.30
2022-09-12T00:16:38.301Z,11.40
2022-09-12T00:21:04.825Z,11.40
2022-09-12T00:25:26.658Z,11.40
2022-09-12T00:29:48.238Z,11.50
2022-09-12T00:34:10.968Z,11.60
2022-09-12T00:38:32.713Z,11.70
2022-09-12T00:42:54.707Z,11.80
2022-09-12T00:47:28.015Z,11.80
2022-09-12T00:51:59.854Z,11.80
2022-09-12T00:56:22.571Z,11.90
2022-09-12T01:00:44.531Z,11.90
2022-09-12T01:05:08.252Z,11.90
2022-09-12T01:09:29.906Z,11.90
2022-09-12T01:13:52.136Z,11.80
2022-09-12T01:18:42.038Z,11.80
2022-09-12T01:23:41.027Z,11.70
2022-09-12T01:28:30.618Z,11.50
2022-09-12T01:33:01.387Z,11.30
2022-09-12T01:37:38.886Z,11.10
2022-09-12T01:42:35.099Z,10.90
2022-09-12T01:47:09.460Z,10.90
2022-09-12T01:51:53.358Z,10.90
2022-09-12T01:56:31.124Z,10.90
2022-09-12T02:01:12.917Z,10.90
2022-09-12T02:05:45.068Z,10.80
2022-09-12T02:10:14.733Z,10.80
2022-09-12T02:14:48.421Z,10.70
2022-09-12T02:19:16.467Z,10.60
2022-09-12T02:23:45.229Z,10.60
2022-09-12T02:28:21.791Z,10.60
2022-09-12T02:33:08.346Z,10.70
2022-09-12T02:37:58.223Z,10.90
2022-09-12T02:42:20.240Z,11.10
2022-09-12T02:46:48.063Z,11.20
2022-09-12T02:51:11.878Z,11.40
2022-09-12T02:55:36.389Z,11.50
2022-09-12T03:00:01.282Z,11.60
2022-09-12T03:05:03.382Z,11.60
2022-09-12T03:09:51.489Z,11.60
2022-09-12T03:14:38.826Z,11.60
2022-09-12T03:19:52.317Z,11.70
2022-09-12T03:25:11.538Z,11.80
2022-09-12T03:29:33.835Z,11.80
2022-09-12T03:33:55.559Z,11.90
2022-09-12T03:38:18.186Z,11.90
2022-09-12T03:42:40.098Z,12.00
2022-09-12T03:47:02.033Z,12.00
2022-09-12T03:51:24.136Z,12.00
2022-09-12T03:55:46.044Z,12.10
2022-09-12T04:00:09.107Z,12.10
2022-09-12T04:04:38.129Z,12.10
2022-09-12T04:09:00.853Z,12.00
2022-09-12T04:13:22.354Z,12.00
2022-09-12T04:17:44.205Z,11.90
2022-09-12T04:22:06.478Z,11.90
2022-09-12T04:26:29.892Z,11.80
2022-09-12T04:30:52.294Z,11.80
2022-09-12T04:35:14.169Z,11.80
2022-09-12T04:39:36.192Z,11.60
2022-09-12T04:44:02.516Z,11.50
2022-09-12T04:48:24.504Z,11.40
2022-09-12T04:52:54.577Z,11.20
2022-09-12T04:57:16.591Z,11.10
2022-09-12T05:01:38.410Z,11.00
2022-09-12T05:06:03.707Z,11.00
2022-09-12T05:10:25.282Z,11.00
2022-09-12T05:14:47.641Z,11.10
2022-09-12T05:19:12.492Z,11.30
2022-09-12T05:23:34.340Z,11.40
2022-09-12T05:27:56.845Z,11.70
2022-09-12T05:32:18.646Z,11.80
2022-09-12T05:36:40.314Z,11.80
2022-09-12T05:41:08.497Z,11.90
2022-09-12T05:45:30.751Z,12.10
2022-09-12T05:49:53.034Z,12.30
2022-09-12T05:54:20.447Z,12.50
2022-09-12T05:58:46.298Z,12.80
2022-09-12T06:03:08.439Z,13.10
2022-09-12T06:07:31.254Z,13.50
2022-09-12T06:11:53.134Z,14.00
2022-09-12T06:16:18.060Z,14.30
2022-09-12T06:20:39.942Z,14.50
2022-09-12T06:25:01.837Z,14.50
2022-09-12T06:29:24.140Z,14.50
2022-09-12T06:33:51.962Z,14.50
2022-09-12T06:38:13.597Z,14.50
2022-09-12T06:42:35.496Z,14.60
2022-09-12T06:46:58.792Z,14.60
2022-09-12T06:51:21.012Z,15.00
2022-09-12T06:55:42.916Z,15.70
2022-09-12T07:00:05.949Z,16.60
2022-09-12T07:04:28.180Z,18.20
2022-09-12T07:08:50.204Z,20.20
2022-09-12T07:13:11.839Z,22.90
2022-09-12T07:17:33.826Z,23.00
2022-09-12T07:21:58.688Z,26.20
2022-09-12T07:26:20.419Z,29.20
2022-09-12T07:30:42.203Z,31.20
2022-09-12T07:35:04.473Z,33.60
2022-09-12T07:39:26.183Z,35.70
2022-09-12T07:43:51.163Z,37.10
2022-09-12T07:48:12.897Z,37.70
2022-09-12T07:52:35.137Z,38.00
2022-09-12T07:56:56.874Z,38.20
2022-09-12T08:01:23.373Z,38.70
2022-09-12T08:05:45.264Z,36.20
2022-09-12T08:10:07.511Z,32.40
2022-09-12T08:14:29.875Z,29.90
2022-09-12T08:18:52.430Z,29.00
2022-09-12T08:23:14.017Z,28.60
2022-09-12T08:27:36.349Z,27.50
2022-09-12T08:31:58.351Z,26.00
2022-09-12T08:36:24.398Z,25.50
2022-09-12T08:41:05.283Z,25.10
2022-09-12T08:45:51.981Z,24.30
2022-09-12T08:50:22.534Z,23.30
2022-09-12T08:54:48.265Z,23.50
2022-09-12T08:59:10.639Z,25.70
2022-09-12T09:04:32.507Z,30.80
2022-09-12T09:09:22.051Z,34.40
2022-09-12T09:14:49.258Z,33.10
2022-09-12T09:19:50.796Z,29.70
2022-09-12T09:24:19.061Z,26.60
2022-09-12T09:29:02.833Z,24.90
2022-09-12T09:33:32.573Z,23.90
2022-09-12T09:38:24.580Z,23.20
2022-09-12T09:43:02.018Z,27.10
2022-09-12T09:47:24.152Z,32.40
2022-09-12T09:51:46.971Z,36.20
2022-09-12T09:56:37.121Z,35.70
2022-09-12T10:01:12.283Z,32.40
2022-09-12T10:05:46.095Z,31.20
2022-09-12T10:10:18.764Z,33.50
2022-09-12T10:14:42.480Z,35.00
2022-09-12T10:19:04.763Z,34.20
2022-09-12T10:23:37.229Z,32.20
2022-09-12T10:28:00.883Z,33.50
2022-09-12T10:32:42.526Z,36.70
2022-09-12T10:37:09.418Z,37.70
2022-09-12T10:41:39.793Z,38.60
2022-09-12T10:46:19.801Z,40.00
2022-09-12T10:50:43.331Z,40.70
2022-09-12T10:55:13.937Z,41.60
2022-09-12T11:00:18.162Z,41.80
2022-09-12T11:04:55.497Z,40.20
2022-09-12T11:10:03.016Z,35.00
2022-09-12T11:15:03.198Z,30.50
2022-09-12T11:19:47.344Z,28.40
2022-09-12T11:24:30.658Z,26.90
2022-09-12T11:29:26.986Z,25.90
2022-09-12T11:33:56.703Z,26.20
2022-09-12T11:39:17.384Z,29.00
2022-09-12T11:43:48.379Z,30.40
2022-09-12T11:48:37.543Z,31.40
2022-09-12T11:53:28.286Z,31.40
2022-09-12T11:57:55.351Z,31.40
2022-09-12T12:02:32.736Z,31.30
2022-09-12T12:07:16.132Z,30.40
2022-09-12T12:11:48.970Z,29.50
2022-09-12T12:16:50.289Z,28.30
2022-09-12T12:21:21.722Z,27.40
2022-09-12T12:26:00.018Z,25.60
2022-09-12T12:30:31.420Z,24.80
2022-09-12T12:35:02.645Z,24.80
2022-09-12T12:39:33.733Z,25.20
2022-09-12T12:43:57.655Z,25.30
2022-09-12T12:48:20.527Z,25.20
2022-09-12T12:53:03.669Z,25.10
2022-09-12T12:57:48.902Z,25.20
2022-09-12T13:02:22.983Z,25.10
2022-09-12T13:06:56.168Z,24.90
2022-09-12T13:11:36.919Z,24.90
2022-09-12T13:15:58.949Z,24.70
2022-09-12T13:20:29.491Z,24.60
2022-09-12T13:24:54.785Z,24.50
2022-09-12T13:29:18.784Z,24.20
2022-09-12T13:33:47.594Z,24.00
2022-09-12T13:38:43.264Z,23.90
2022-09-12T13:43:29.411Z,24.10
2022-09-12T13:48:00.124Z,24.30
2022-09-12T13:52:40.253Z,24.50
2022-09-12T13:57:01.956Z,24.50
2022-09-12T14:01:44.847Z,24.50
2022-09-12T14:06:08.544Z,24.30
2022-09-12T14:10:35.770Z,24.40
2022-09-12T14:14:58.128Z,24.10
2022-09-12T14:19:23.478Z,23.90
2022-09-12T14:23:48.161Z,23.60
2022-09-12T14:28:13.768Z,23.50
2022-09-12T14:32:35.987Z,23.50
2022-09-12T14:36:58.821Z,23.10
2022-09-12T14:41:30.964Z,22.50
2022-09-12T14:45:59.914Z,22.30
2022-09-12T14:50:32.016Z,22.40
2022-09-12T14:55:16.597Z,22.30
2022-09-12T14:59:40.828Z,22.30
2022-09-12T15:04:02.927Z,22.10
2022-09-12T15:08:25.851Z,22.20
2022-09-12T15:12:48.064Z,22.00
2022-09-12T15:17:09.579Z,22.00
2022-09-12T15:21:31.507Z,21.70
2022-09-12T15:25:53.856Z,21.30
2022-09-12T15:30:15.659Z,21.20
2022-09-12T15:34:37.779Z,20.90
2022-09-12T15:38:59.748Z,20.60
2022-09-12T15:43:26.353Z,20.50
2022-09-12T15:47:48.319Z,20.40
2022-09-12T15:52:15.877Z,20.10
2022-09-12T15:56:38.348Z,19.90
2022-09-12T16:01:02.328Z,19.60
2022-09-12T16:05:26.688Z,19.50
2022-09-12T16:09:48.681Z,19.50
2022-09-12T16:14:17.188Z,19.30
2022-09-12T16:18:42.178Z,19.20
2022-09-12T16:23:04.070Z,19.10
2022-09-12T16:27:25.764Z,18.90
2022-09-12T16:31:47.806Z,18.80
2022-09-12T16:36:14.667Z,18.70
2022-09-12T16:40:37.437Z,18.60
2022-09-12T16:44:59.460Z,18.50
2022-09-12T16:49:21.892Z,18.40
2022-09-12T16:53:44.491Z,18.30
2022-09-12T16:58:06.455Z,18.30
2022-09-12T17:02:28.304Z,18.20
2022-09-12T17:06:50.291Z,18.20
2022-09-12T17:11:16.492Z,18.10
2022-09-12T17:15:38.703Z,18.00
2022-09-12T17:20:00.579Z,17.80
2022-09-12T17:24:23.287Z,17.80
2022-09-12T17:28:45.623Z,17.60
2022-09-12T17:33:07.789Z,17.40
2022-09-12T17:37:29.423Z,17.20
2022-09-12T17:41:52.009Z,17.00
2022-09-12T17:46:14.841Z,16.90
2022-09-12T17:50:39.564Z,16.70
2022-09-12T17:55:01.603Z,16.50
2022-09-12T17:59:24.881Z,16.40
2022-09-12T18:03:47.295Z,16.30
2022-09-12T18:08:08.915Z,16.10
2022-09-12T18:12:31.090Z,15.90
2022-09-12T18:16:53.010Z,15.70
2022-09-12T18:21:15.056Z,15.50
2022-09-12T18:25:36.545Z,15.20
2022-09-12T18:30:19.598Z,15.00
2022-09-12T18:34:40.398Z,14.70
2022-09-12T18:39:02.429Z,14.50
2022-09-12T18:43:24.276Z,14.30
2022-09-12T18:47:46.272Z,14.10
2022-09-12T18:52:08.294Z,14.00
2022-09-12T18:56:35.222Z,13.80
2022-09-12T19:00:58.591Z,13.80
2022-09-12T19:05:20.537Z,13.70
2022-09-12T19:09:42.724Z,13.50
2022-09-12T19:14:04.611Z,13.40
2022-09-12T19:18:26.585Z,13.30
2022-09-12T19:22:48.732Z,13.30
2022-09-12T19:27:13.041Z,13.30
2022-09-12T19:31:34.944Z,13.30
2022-09-12T19:36:00.292Z,13.20
2022-09-12T19:40:22.186Z,13.10
2022-09-12T19:44:43.990Z,13.00
2022-09-12T19:49:06.093Z,12.90
2022-09-12T19:53:28.631Z,12.80
2022-09-12T19:57:50.549Z,12.70
2022-09-12T20:02:12.539Z,12.60
2022-09-12T20:06:35.043Z,12.50
2022-09-12T20:10:57.380Z,12.40
2022-09-12T20:15:19.779Z,12.30
2022-09-12T20:19:42.009Z,12.20
2022-09-12T20:24:12.843Z,12.10
2022-09-12T20:28:37.278Z,12.00
2022-09-12T20:32:59.762Z,11.90
2022-09-12T20:37:22.389Z,11.80
2022-09-12T20:41:45.402Z,11.80
2022-09-12T20:46:12.164Z,11.70
2022-09-12T20:50:34.422Z,11.60
2022-09-12T20:54:56.468Z,11.60
2022-09-12T20:59:18.807Z,11.50
2022-09-12T21:03:42.679Z,11.50
2022-09-12T21:09:01.299Z,11.40
2022-09-12T21:13:23.779Z,11.30
2022-09-12T21:17:45.840Z,11.20
2022-09-12T21:22:08.080Z,11.20
2022-09-12T21:26:30.499Z,11.10
2022-09-12T21:30:52.837Z,11.10
2022-09-12T21:35:15.162Z,11.00
2022-09-12T21:39:37.299Z,11.10
2022-09-12T21:43:59.760Z,11.00
2022-09-12T21:48:22.639Z,11.00
2022-09-12T21:52:45.439Z,11.00
2022-09-12T21:57:07.720Z,11.10
2022-09-12T22:01:30.198Z,11.20
2022-09-12T22:06:00.420Z,11.30
2022-09-12T22:10:24.121Z,11.50
2022-09-12T22:14:49.282Z,11.70
2022-09-12T22:19:13.030Z,11.80
2022-09-12T22:23:54.016Z,11.90
2022-09-12T22:28:16.486Z,11.80
2022-09-12T22:32:38.585Z,11.80
2022-09-12T22:37:01.547Z,11.70
2022-09-12T22:41:24.546Z,11.50
2022-09-12T22:45:46.905Z,11.50
2022-09-12T22:50:09.325Z,11.50
2022-09-12T22:54:31.845Z,11.50
2022-09-12T22:58:54.521Z,11.50
2022-09-12T23:03:20.997Z,11.50
2022-09-12T23:07:43.466Z,11.60
2022-09-12T23:12:05.885Z,11.70
2022-09-12T23:16:31.389Z,11.70
2022-09-12T23:21:07.887Z,11.70
2022-09-12T23:25:30.026Z,11.80
2022-09-12T23:29:52.646Z,11.80
2022-09-12T23:34:15.286Z,11.90
2022-09-12T23:38:37.445Z,11.90
2022-09-12T23:43:00.052Z,11.90
2022-09-12T23:47:22.285Z,11.80
2022-09-12T23:51:45.045Z,11.80
2022-09-12T23:56:07.785Z,11.80
